Monday, July 23, 2018, 2:06 AM EDT
Back to Local

KJGG, Williamsburg, Williamsburg-jamestown Airport

Location: Williamsburg, VA, United States Lat: 37.239
Local Time: 2:06 AM EDT ( 6:06 GMT) Lon: -76.716
Time Zone: US/Eastern Elev: 49 ft

Show me the last for .
Show Decoded

2018-07-23 01:35 METAR KJGG 230535Z AUTO 15010KT 10SM CLR 24/21 A2987 RMK AO1 =
2018-07-23 01:15 METAR KJGG 230515Z AUTO 16007KT 10SM CLR 24/22 A2986 RMK AO1 =
2018-07-23 00:55 METAR KJGG 230455Z AUTO 15010KT 10SM CLR 25/22 A2986 RMK AO1 =
2018-07-23 00:35 METAR KJGG 230435Z AUTO 17007G16KT 10SM CLR 25/21 A2986 RMK AO1 =
2018-07-23 00:15 METAR KJGG 230415Z AUTO 17010G18KT 10SM CLR 26/21 A2987 RMK AO1 =
2018-07-22 23:55 METAR KJGG 230355Z AUTO 14011G16KT 10SM CLR 26/24 A2987 RMK AO1 =
2018-07-22 23:35 METAR KJGG 230335Z AUTO 14009G16KT 10SM CLR 26/24 A2986 RMK AO1 =
2018-07-22 23:15 METAR KJGG 230315Z AUTO 15006KT 10SM CLR 27/24 A2986 RMK AO1 =
2018-07-22 22:55 METAR KJGG 230255Z AUTO 14010KT 10SM CLR 27/24 A2987 RMK AO1 =
2018-07-22 22:35 METAR KJGG 230235Z AUTO 15010KT 10SM CLR 27/24 A2987 RMK AO1 =
2018-07-22 22:15 METAR KJGG 230215Z AUTO 15013G18KT 10SM CLR 27/25 A2986 RMK AO1 =
2018-07-22 21:55 METAR KJGG 230155Z AUTO 15013G18KT 10SM CLR 26/25 A2985 RMK AO1 =
2018-07-22 21:35 METAR KJGG 230135Z AUTO 15012G15KT 7SM CLR 25/24 A2984 RMK AO1 =
2018-07-22 21:15 METAR KJGG 230115Z AUTO 00000KT 5SM CLR 24/24 A2983 RMK AO1 =
2018-07-22 20:55 METAR KJGG 230055Z AUTO 00000KT 10SM CLR 24/23 A2983 RMK AO1 =
2018-07-22 20:35 METAR KJGG 230035Z AUTO 00000KT 10SM CLR 24/23 A2983 RMK AO1 =
2018-07-22 20:15 METAR KJGG 230015Z AUTO 00000KT 10SM CLR 24/23 A2982 RMK AO1 =
2018-07-22 19:55 METAR KJGG 222355Z AUTO 00000KT 10SM CLR 24/23 A2982 RMK AO1 =
2018-07-22 19:35 METAR KJGG 222335Z AUTO 00000KT 10SM CLR 24/23 A2981 RMK AO1 =
2018-07-22 19:15 METAR KJGG 222315Z AUTO 00000KT 10SM CLR 24/23 A2981 RMK AO1 =
2018-07-22 18:55 METAR KJGG 222255Z AUTO 00000KT 10SM CLR 24/23 A2981 RMK AO1 =
2018-07-22 18:35 METAR KJGG 222235Z AUTO 00000KT 10SM CLR 24/23 A2981 RMK AO1 =
2018-07-22 18:15 METAR KJGG 222215Z AUTO 00000KT 10SM CLR 25/23 A2981 RMK AO1 =
2018-07-22 17:55 METAR KJGG 222155Z AUTO 00000KT 10SM CLR 26/23 A2981 RMK AO1 =
2018-07-22 17:35 METAR KJGG 222135Z AUTO 00000KT 10SM CLR 26/23 A2981 RMK AO1 =
2018-07-22 17:15 METAR KJGG 222115Z AUTO 00000KT 10SM CLR 26/23 A2980 RMK AO1 =
2018-07-22 16:55 METAR KJGG 222055Z AUTO 00000KT 10SM CLR 25/23 A2980 RMK AO1 P0006 =
2018-07-22 16:35 METAR KJGG 222035Z AUTO 10008G15KT 10SM CLR 24/23 A2981 RMK AO1 P0006 =
2018-07-22 16:15 METAR KJGG 222015Z AUTO 00000KT 7SM SCT006 SCT020 22/21 A2979 RMK AO1 P0006 =
2018-07-22 15:55 METAR KJGG 221955Z AUTO 22014G22KT 1 1/2SM SCT007 BKN015 OVC027 23/21 A2984 RMK
                 AO1 VIS 1/2V5 P0030 =
2018-07-22 15:35 METAR KJGG 221935Z AUTO 18012KT 1 3/4SM SCT005 BKN013 OVC043 24/22 A2982 RMK AO1
                 VIS 1V3 P0012 =
2018-07-22 15:15 METAR KJGG 221915Z AUTO 00000KT 1 1/4SM BKN005 BKN021 25/22 A2979 RMK AO1 VIS
                 1/4V5 P0005 =
2018-07-22 14:55 METAR KJGG 221855Z AUTO 00000KT 7SM CLR 28/23 A2979 RMK AO1 =
2018-07-22 14:35 METAR KJGG 221835Z AUTO 00000KT 10SM CLR 30/22 A2979 RMK AO1 =
2018-07-22 14:15 METAR KJGG 221815Z AUTO 00000KT 10SM CLR 31/23 A2979 RMK AO1 =
2018-07-22 13:55 METAR KJGG 221755Z AUTO 13004KT 10SM CLR 30/23 A2981 RMK AO1 =
2018-07-22 13:35 METAR KJGG 221735Z AUTO 00000KT 10SM CLR 31/22 A2981 RMK AO1 =
2018-07-22 13:15 METAR KJGG 221715Z AUTO 15009G15KT 10SM CLR 29/22 A2982 RMK AO1 =
2018-07-22 12:55 METAR KJGG 221655Z AUTO 16010KT 10SM CLR 31/21 A2982 RMK AO1 =
2018-07-22 12:35 METAR KJGG 221635Z AUTO 18008KT 140V200 10SM CLR 30/21 A2983 RMK AO1 =
2018-07-22 12:15 METAR KJGG 221615Z AUTO 15008KT 10SM CLR 29/21 A2983 RMK AO1 =
2018-07-22 11:55 METAR KJGG 221555Z AUTO 15011G16KT 10SM CLR 27/21 A2982 RMK AO1 =
2018-07-22 11:35 METAR KJGG 221535Z AUTO 15010G19KT 10SM CLR 28/22 A2982 RMK AO1 =
2018-07-22 11:15 METAR KJGG 221515Z AUTO 15016G20KT 10SM CLR 28/24 A2981 RMK AO1 =
2018-07-22 10:55 METAR KJGG 221455Z AUTO 14009G19KT 10SM CLR 27/24 A2981 RMK AO1 =
2018-07-22 10:35 METAR KJGG 221435Z AUTO 14003G08KT 10SM CLR 27/24 A2980 RMK AO1 =
2018-07-22 10:15 METAR KJGG 221415Z AUTO 13007KT 10SM CLR 27/23 A2981 RMK AO1 =
2018-07-22 09:55 METAR KJGG 221355Z AUTO 14008KT 10SM CLR 27/23 A2981 RMK AO1 =
2018-07-22 09:35 METAR KJGG 221335Z AUTO 13006KT 10SM CLR 26/23 A2982 RMK AO1 =
2018-07-22 09:15 METAR KJGG 221315Z AUTO 14007KT 10SM CLR 25/22 A2983 RMK AO1 =
2018-07-22 08:55 METAR KJGG 221255Z AUTO 15010KT 10SM CLR 24/22 A2984 RMK AO1 =
2018-07-22 08:35 METAR KJGG 221235Z AUTO 13005KT 10SM CLR 23/21 A2983 RMK AO1 =
2018-07-22 08:15 METAR KJGG 221215Z AUTO 00000KT 10SM CLR 23/21 A2981 RMK AO1 =
2018-07-22 07:55 METAR KJGG 221155Z AUTO 00000KT 10SM CLR 22/21 A2981 RMK AO1 =
2018-07-22 07:35 METAR KJGG 221135Z AUTO 00000KT 10SM CLR 22/21 A2980 RMK AO1 =
2018-07-22 07:15 METAR KJGG 221115Z AUTO 13007KT 10SM CLR 21/21 A2980 RMK AO1 =
2018-07-22 06:55 METAR KJGG 221055Z AUTO 13004KT 10SM CLR 21/20 A2979 RMK AO1 =
2018-07-22 06:35 METAR KJGG 221035Z AUTO 12003KT 10SM CLR 21/20 A2979 RMK AO1 =
2018-07-22 06:15 METAR KJGG 221015Z AUTO 00000KT 10SM CLR 21/20 A2978 RMK AO1 =
2018-07-22 05:55 METAR KJGG 220955Z AUTO 00000KT 10SM CLR 21/19 A2979 RMK AO1 =
2018-07-22 05:35 METAR KJGG 220935Z AUTO 00000KT 10SM SCT026 20/19 A2978 RMK AO1 =
2018-07-22 05:15 METAR KJGG 220915Z AUTO 00000KT 10SM CLR 20/19 A2978 RMK AO1 =
2018-07-22 04:55 METAR KJGG 220855Z AUTO 00000KT 10SM CLR 20/19 A2979 RMK AO1 =
2018-07-22 04:35 METAR KJGG 220835Z AUTO 00000KT 10SM SCT031 20/19 A2979 RMK AO1 =
2018-07-22 04:15 METAR KJGG 220815Z AUTO 00000KT 10SM SCT031 SCT048 20/19 A2978 RMK AO1 =
2018-07-22 03:55 METAR KJGG 220755Z AUTO 00000KT 10SM SCT048 20/19 A2979 RMK AO1 =
2018-07-22 03:35 METAR KJGG 220735Z AUTO 00000KT 10SM CLR 20/19 A2978 RMK AO1 =
2018-07-22 03:15 METAR KJGG 220715Z AUTO 00000KT 10SM CLR 20/19 A2978 RMK AO1 =
2018-07-22 02:55 METAR KJGG 220655Z AUTO 00000KT 10SM CLR 20/18 A2978 RMK AO1 =
2018-07-22 02:35 METAR KJGG 220635Z AUTO 00000KT 10SM CLR 21/18 A2978 RMK AO1 =
2018-07-22 02:15 METAR KJGG 220615Z AUTO 29003KT 10SM CLR 21/18 A2978 RMK AO1 =

Support USWX by starting your Amazon purchase here.